Terminal Aerodrome Forecast
Issued by NWS Sioux Falls, SD

Home | Current Version | Previous Version | Text Only | Print | Product List | Glossary On
Versions: 1 2 3 4 5 6 7 8 9 10 11 12 13 14 15 16 17
000
FTUS43 KFSD 281400 AAA
TAFHON
TAF AMD
KHON 281400Z 2814/2912 11006KT 3SM -SHRA OVC008
      TEMPO 2814/2815 1SM RA OVC005
     FM281600 09007KT P6SM OVC012
      TEMPO 2816/2820 -SHRA BKN009
     FM282100 30005KT P6SM SCT025 BKN200=

USA.gov is the U.S. government's official web portal to all federal, state and local government web resources and services.